sensor_id;sensor_type;location;lat;lon;timestamp;temperature;humidity
15156;DHT22;7678;50.058;8.306;2023-12-29T00:00:00;7.30;99.90
15156;DHT22;7678;50.058;8.306;2023-12-29T00:02:28;7.40;99.90
15156;DHT22;7678;50.058;8.306;2023-12-29T00:04:57;7.40;99.90
15156;DHT22;7678;50.058;8.306;2023-12-29T00:07:26;7.30;99.90
15156;DHT22;7678;50.058;8.306;2023-12-29T00:09:57;7.20;99.90
15156;DHT22;7678;50.058;8.306;2023-12-29T00:12:26;7.10;99.90
15156;DHT22;7678;50.058;8.306;2023-12-29T00:14:54;7.10;99.90
15156;DHT22;7678;50.058;8.306;2023-12-29T00:17:23;7.20;99.90
15156;DHT22;7678;50.058;8.306;2023-12-29T00:19:51;7.20;99.90
15156;DHT22;7678;50.058;8.306;2023-12-29T00:22:21;7.20;99.90
15156;DHT22;7678;50.058;8.306;2023-12-29T00:24:50;7.20;99.90
15156;DHT22;7678;50.058;8.306;2023-12-29T00:27:18;7.30;99.90
15156;DHT22;7678;50.058;8.306;2023-12-29T00:29:47;7.30;99.90
15156;DHT22;7678;50.058;8.306;2023-12-29T00:32:16;7.30;99.90
15156;DHT22;7678;50.058;8.306;2023-12-29T00:34:45;7.30;99.90
15156;DHT22;7678;50.058;8.306;2023-12-29T00:37:13;7.40;99.90
15156;DHT22;7678;50.058;8.306;2023-12-29T00:39:41;7.40;99.90
15156;DHT22;7678;50.058;8.306;2023-12-29T00:42:11;7.40;99.90
15156;DHT22;7678;50.058;8.306;2023-12-29T00:44:40;7.40;99.90
15156;DHT22;7678;50.058;8.306;2023-12-29T00:47:09;7.30;99.90
15156;DHT22;7678;50.058;8.306;2023-12-29T00:49:38;7.20;99.90
15156;DHT22;7678;50.058;8.306;2023-12-29T00:52:08;7.20;99.90
15156;DHT22;7678;50.058;8.306;2023-12-29T00:54:36;7.00;99.90
15156;DHT22;7678;50.058;8.306;2023-12-29T00:57:04;7.10;99.90
15156;DHT22;7678;50.058;8.306;2023-12-29T00:59:37;7.20;99.90
15156;DHT22;7678;50.058;8.306;2023-12-29T01:02:07;7.20;99.90
15156;DHT22;7678;50.058;8.306;2023-12-29T01:04:37;7.10;99.90
15156;DHT22;7678;50.058;8.306;2023-12-29T01:07:06;7.10;99.90
15156;DHT22;7678;50.058;8.306;2023-12-29T01:09:37;7.20;99.90
15156;DHT22;7678;50.058;8.306;2023-12-29T01:12:07;7.20;99.90
15156;DHT22;7678;50.058;8.306;2023-12-29T01:14:39;7.20;99.90
15156;DHT22;7678;50.058;8.306;2023-12-29T01:17:07;7.30;99.90
15156;DHT22;7678;50.058;8.306;2023-12-29T01:19:35;7.30;99.90
15156;DHT22;7678;50.058;8.306;2023-12-29T01:22:03;7.20;99.90
15156;DHT22;7678;50.058;8.306;2023-12-29T01:24:32;7.10;99.90
15156;DHT22;7678;50.058;8.306;2023-12-29T01:27:11;7.10;99.90
15156;DHT22;7678;50.058;8.306;2023-12-29T01:29:41;7.10;99.90
15156;DHT22;7678;50.058;8.306;2023-12-29T01:32:12;7.10;99.90
15156;DHT22;7678;50.058;8.306;2023-12-29T01:34:40;7.00;99.90
15156;DHT22;7678;50.058;8.306;2023-12-29T01:37:08;7.00;99.90
15156;DHT22;7678;50.058;8.306;2023-12-29T01:39:37;7.00;99.90
15156;DHT22;7678;50.058;8.306;2023-12-29T01:42:07;7.00;99.90
15156;DHT22;7678;50.058;8.306;2023-12-29T01:44:36;7.10;99.90
15156;DHT22;7678;50.058;8.306;2023-12-29T01:47:13;7.10;99.90
15156;DHT22;7678;50.058;8.306;2023-12-29T01:49:44;7.20;99.90
15156;DHT22;7678;50.058;8.306;2023-12-29T01:52:14;7.20;99.90
15156;DHT22;7678;50.058;8.306;2023-12-29T01:54:44;7.30;99.90
15156;DHT22;7678;50.058;8.306;2023-12-29T01:57:14;7.30;99.90
15156;DHT22;7678;50.058;8.306;2023-12-29T01:59:43;7.40;99.90
15156;DHT22;7678;50.058;8.306;2023-12-29T02:02:13;7.50;99.90
15156;DHT22;7678;50.058;8.306;2023-12-29T02:04:42;7.40;99.90
15156;DHT22;7678;50.058;8.306;2023-12-29T02:07:11;7.50;99.90
15156;DHT22;7678;50.058;8.306;2023-12-29T02:09:40;7.60;99.90
15156;DHT22;7678;50.058;8.306;2023-12-29T02:12:09;7.70;99.90
15156;DHT22;7678;50.058;8.306;2023-12-29T02:14:37;7.50;99.90
15156;DHT22;7678;50.058;8.306;2023-12-29T02:17:13;7.40;99.90
15156;DHT22;7678;50.058;8.306;2023-12-29T02:19:46;7.30;99.90
15156;DHT22;7678;50.058;8.306;2023-12-29T02:22:16;7.30;99.90
15156;DHT22;7678;50.058;8.306;2023-12-29T02:24:47;7.30;99.90
15156;DHT22;7678;50.058;8.306;2023-12-29T02:27:23;7.30;99.90
15156;DHT22;7678;50.058;8.306;2023-12-29T02:30:08;7.20;99.90
15156;DHT22;7678;50.058;8.306;2023-12-29T02:32:39;7.30;99.90
15156;DHT22;7678;50.058;8.306;2023-12-29T02:35:12;7.30;99.90
15156;DHT22;7678;50.058;8.306;2023-12-29T02:37:42;7.20;99.90
15156;DHT22;7678;50.058;8.306;2023-12-29T02:40:12;7.20;99.90
15156;DHT22;7678;50.058;8.306;2023-12-29T02:42:45;7.20;99.90
15156;DHT22;7678;50.058;8.306;2023-12-29T02:45:14;7.20;99.90
15156;DHT22;7678;50.058;8.306;2023-12-29T02:47:42;7.30;99.90
15156;DHT22;7678;50.058;8.306;2023-12-29T02:50:11;7.20;99.90
15156;DHT22;7678;50.058;8.306;2023-12-29T02:52:40;7.20;99.90
15156;DHT22;7678;50.058;8.306;2023-12-29T02:55:09;7.30;99.90
15156;DHT22;7678;50.058;8.306;2023-12-29T02:57:39;7.30;99.90
15156;DHT22;7678;50.058;8.306;2023-12-29T03:00:09;7.40;99.90
15156;DHT22;7678;50.058;8.306;2023-12-29T03:02:37;7.40;99.90
15156;DHT22;7678;50.058;8.306;2023-12-29T03:05:06;7.40;99.90
15156;DHT22;7678;50.058;8.306;2023-12-29T03:07:35;7.40;99.90
15156;DHT22;7678;50.058;8.306;2023-12-29T03:10:04;7.30;99.90
15156;DHT22;7678;50.058;8.306;2023-12-29T03:12:33;7.40;99.90
15156;DHT22;7678;50.058;8.306;2023-12-29T03:15:03;7.50;99.90
15156;DHT22;7678;50.058;8.306;2023-12-29T03:17:31;7.60;99.90
15156;DHT22;7678;50.058;8.306;2023-12-29T03:20:01;7.70;99.90
15156;DHT22;7678;50.058;8.306;2023-12-29T03:22:30;7.60;99.90
15156;DHT22;7678;50.058;8.306;2023-12-29T03:24:58;7.60;99.90
15156;DHT22;7678;50.058;8.306;2023-12-29T03:27:28;7.50;99.90
15156;DHT22;7678;50.058;8.306;2023-12-29T03:29:57;7.40;99.90
15156;DHT22;7678;50.058;8.306;2023-12-29T03:32:27;7.40;99.90
15156;DHT22;7678;50.058;8.306;2023-12-29T03:34:55;7.40;99.90
15156;DHT22;7678;50.058;8.306;2023-12-29T03:37:24;7.40;99.90
15156;DHT22;7678;50.058;8.306;2023-12-29T03:39:55;7.40;99.90
15156;DHT22;7678;50.058;8.306;2023-12-29T03:42:24;7.40;99.90
15156;DHT22;7678;50.058;8.306;2023-12-29T03:44:52;7.40;99.90
15156;DHT22;7678;50.058;8.306;2023-12-29T03:47:24;7.40;99.90
15156;DHT22;7678;50.058;8.306;2023-12-29T03:49:54;7.40;99.90
15156;DHT22;7678;50.058;8.306;2023-12-29T03:52:22;7.50;99.90
15156;DHT22;7678;50.058;8.306;2023-12-29T03:54:51;7.40;99.90
15156;DHT22;7678;50.058;8.306;2023-12-29T03:57:19;7.40;99.90
15156;DHT22;7678;50.058;8.306;2023-12-29T03:59:47;7.40;99.90
15156;DHT22;7678;50.058;8.306;2023-12-29T04:02:15;7.40;99.90
15156;DHT22;7678;50.058;8.306;2023-12-29T04:04:44;7.40;99.90
15156;DHT22;7678;50.058;8.306;2023-12-29T04:07:14;7.40;99.90
15156;DHT22;7678;50.058;8.306;2023-12-29T04:09:42;7.50;99.90
15156;DHT22;7678;50.058;8.306;2023-12-29T04:12:10;7.40;99.90
15156;DHT22;7678;50.058;8.306;2023-12-29T04:14:38;7.40;99.90
15156;DHT22;7678;50.058;8.306;2023-12-29T04:17:07;7.40;99.90
15156;DHT22;7678;50.058;8.306;2023-12-29T04:19:41;7.40;99.90
15156;DHT22;7678;50.058;8.306;2023-12-29T04:22:09;7.30;99.90
15156;DHT22;7678;50.058;8.306;2023-12-29T04:24:39;7.20;99.90
15156;DHT22;7678;50.058;8.306;2023-12-29T04:27:07;7.40;99.90
15156;DHT22;7678;50.058;8.306;2023-12-29T04:29:35;7.40;99.90
15156;DHT22;7678;50.058;8.306;2023-12-29T04:32:04;7.30;99.90
15156;DHT22;7678;50.058;8.306;2023-12-29T04:34:34;7.30;99.90
15156;DHT22;7678;50.058;8.306;2023-12-29T04:37:02;7.40;99.90
15156;DHT22;7678;50.058;8.306;2023-12-29T04:39:31;7.60;99.90
15156;DHT22;7678;50.058;8.306;2023-12-29T04:42:01;7.80;99.90
15156;DHT22;7678;50.058;8.306;2023-12-29T04:44:29;7.80;99.90
15156;DHT22;7678;50.058;8.306;2023-12-29T04:46:58;7.70;99.90
15156;DHT22;7678;50.058;8.306;2023-12-29T04:49:26;7.80;99.90
15156;DHT22;7678;50.058;8.306;2023-12-29T04:51:54;7.80;99.90
15156;DHT22;7678;50.058;8.306;2023-12-29T04:54:23;7.80;99.90
15156;DHT22;7678;50.058;8.306;2023-12-29T04:56:52;7.80;99.90
15156;DHT22;7678;50.058;8.306;2023-12-29T04:59:22;7.90;99.90
15156;DHT22;7678;50.058;8.306;2023-12-29T05:01:50;7.90;99.90
15156;DHT22;7678;50.058;8.306;2023-12-29T05:04:18;7.90;99.90
15156;DHT22;7678;50.058;8.306;2023-12-29T05:06:46;7.90;99.90
15156;DHT22;7678;50.058;8.306;2023-12-29T05:09:14;7.80;99.90
15156;DHT22;7678;50.058;8.306;2023-12-29T05:11:43;7.70;99.90
15156;DHT22;7678;50.058;8.306;2023-12-29T05:14:11;7.70;99.90
15156;DHT22;7678;50.058;8.306;2023-12-29T05:16:42;7.60;99.90
15156;DHT22;7678;50.058;8.306;2023-12-29T05:19:10;7.80;99.90
15156;DHT22;7678;50.058;8.306;2023-12-29T05:21:40;7.90;99.90
15156;DHT22;7678;50.058;8.306;2023-12-29T05:24:09;7.90;99.90
15156;DHT22;7678;50.058;8.306;2023-12-29T05:26:37;7.80;99.90
15156;DHT22;7678;50.058;8.306;2023-12-29T05:29:05;7.80;99.90
15156;DHT22;7678;50.058;8.306;2023-12-29T05:31:33;7.80;99.90
15156;DHT22;7678;50.058;8.306;2023-12-29T05:34:03;7.80;99.90
15156;DHT22;7678;50.058;8.306;2023-12-29T05:36:36;7.70;99.90
15156;DHT22;7678;50.058;8.306;2023-12-29T05:39:05;7.80;99.90
15156;DHT22;7678;50.058;8.306;2023-12-29T05:41:33;8.00;99.90
15156;DHT22;7678;50.058;8.306;2023-12-29T05:44:02;8.00;99.90
15156;DHT22;7678;50.058;8.306;2023-12-29T05:46:30;8.10;99.90
15156;DHT22;7678;50.058;8.306;2023-12-29T05:48:58;8.10;99.90
15156;DHT22;7678;50.058;8.306;2023-12-29T05:51:30;8.00;99.90
15156;DHT22;7678;50.058;8.306;2023-12-29T05:53:59;8.00;99.90
15156;DHT22;7678;50.058;8.306;2023-12-29T05:56:27;8.00;99.90
15156;DHT22;7678;50.058;8.306;2023-12-29T05:58:55;8.10;99.90
15156;DHT22;7678;50.058;8.306;2023-12-29T06:01:23;8.10;99.90
15156;DHT22;7678;50.058;8.306;2023-12-29T06:03:54;8.10;99.90
15156;DHT22;7678;50.058;8.306;2023-12-29T06:06:22;8.10;99.90
15156;DHT22;7678;50.058;8.306;2023-12-29T06:08:53;8.20;99.90
15156;DHT22;7678;50.058;8.306;2023-12-29T06:11:21;8.20;99.90
15156;DHT22;7678;50.058;8.306;2023-12-29T06:13:49;8.10;99.90
15156;DHT22;7678;50.058;8.306;2023-12-29T06:16:18;8.10;99.90
15156;DHT22;7678;50.058;8.306;2023-12-29T06:18:47;8.10;99.90
15156;DHT22;7678;50.058;8.306;2023-12-29T06:21:16;8.20;99.90
15156;DHT22;7678;50.058;8.306;2023-12-29T06:23:45;8.10;99.90
15156;DHT22;7678;50.058;8.306;2023-12-29T06:26:18;8.20;99.90
15156;DHT22;7678;50.058;8.306;2023-12-29T06:28:47;8.20;99.90
15156;DHT22;7678;50.058;8.306;2023-12-29T06:31:17;8.10;99.90
15156;DHT22;7678;50.058;8.306;2023-12-29T06:33:45;8.20;99.90
15156;DHT22;7678;50.058;8.306;2023-12-29T06:36:14;8.40;99.90
15156;DHT22;7678;50.058;8.306;2023-12-29T06:38:42;8.30;99.90
15156;DHT22;7678;50.058;8.306;2023-12-29T06:41:17;8.20;99.90
15156;DHT22;7678;50.058;8.306;2023-12-29T06:43:45;8.30;99.90
15156;DHT22;7678;50.058;8.306;2023-12-29T06:46:13;8.30;99.90
15156;DHT22;7678;50.058;8.306;2023-12-29T06:48:41;8.50;99.90
15156;DHT22;7678;50.058;8.306;2023-12-29T06:51:16;8.40;99.90
15156;DHT22;7678;50.058;8.306;2023-12-29T06:53:45;8.50;99.90
15156;DHT22;7678;50.058;8.306;2023-12-29T06:56:14;8.50;99.90
15156;DHT22;7678;50.058;8.306;2023-12-29T06:58:44;8.50;99.90
15156;DHT22;7678;50.058;8.306;2023-12-29T07:01:13;8.50;99.90
15156;DHT22;7678;50.058;8.306;2023-12-29T07:03:43;8.60;99.90
15156;DHT22;7678;50.058;8.306;2023-12-29T07:06:12;8.60;99.90
15156;DHT22;7678;50.058;8.306;2023-12-29T07:08:40;8.70;99.90
15156;DHT22;7678;50.058;8.306;2023-12-29T07:11:09;8.60;99.90
15156;DHT22;7678;50.058;8.306;2023-12-29T07:13:38;8.50;99.90
15156;DHT22;7678;50.058;8.306;2023-12-29T07:16:08;8.60;99.90
15156;DHT22;7678;50.058;8.306;2023-12-29T07:18:38;8.60;99.90
15156;DHT22;7678;50.058;8.306;2023-12-29T07:21:06;8.70;99.90
15156;DHT22;7678;50.058;8.306;2023-12-29T07:23:35;8.70;99.90
15156;DHT22;7678;50.058;8.306;2023-12-29T07:26:03;8.80;99.90
15156;DHT22;7678;50.058;8.306;2023-12-29T07:28:32;8.80;99.90
15156;DHT22;7678;50.058;8.306;2023-12-29T07:31:00;8.80;99.90
15156;DHT22;7678;50.058;8.306;2023-12-29T07:33:30;8.80;99.90
15156;DHT22;7678;50.058;8.306;2023-12-29T07:36:00;8.90;99.90
15156;DHT22;7678;50.058;8.306;2023-12-29T07:38:28;9.00;99.90
15156;DHT22;7678;50.058;8.306;2023-12-29T07:40:56;8.90;99.90
15156;DHT22;7678;50.058;8.306;2023-12-29T07:43:24;8.90;99.90
15156;DHT22;7678;50.058;8.306;2023-12-29T07:45:54;8.90;99.90
15156;DHT22;7678;50.058;8.306;2023-12-29T07:48:22;8.80;99.90
15156;DHT22;7678;50.058;8.306;2023-12-29T07:50:51;8.90;99.90
15156;DHT22;7678;50.058;8.306;2023-12-29T07:53:20;8.90;99.90
15156;DHT22;7678;50.058;8.306;2023-12-29T07:55:48;9.00;99.90
15156;DHT22;7678;50.058;8.306;2023-12-29T07:58:17;9.00;99.90
15156;DHT22;7678;50.058;8.306;2023-12-29T08:00:46;9.00;99.90
15156;DHT22;7678;50.058;8.306;2023-12-29T08:03:14;9.00;99.90
15156;DHT22;7678;50.058;8.306;2023-12-29T08:05:43;9.20;99.90
15156;DHT22;7678;50.058;8.306;2023-12-29T08:08:14;9.00;99.90
15156;DHT22;7678;50.058;8.306;2023-12-29T08:10:43;9.10;99.90
15156;DHT22;7678;50.058;8.306;2023-12-29T08:13:11;9.10;99.90
15156;DHT22;7678;50.058;8.306;2023-12-29T08:15:39;9.00;99.90
15156;DHT22;7678;50.058;8.306;2023-12-29T08:18:08;9.20;99.90
15156;DHT22;7678;50.058;8.306;2023-12-29T08:20:37;9.20;99.90
15156;DHT22;7678;50.058;8.306;2023-12-29T08:23:05;9.10;99.90
15156;DHT22;7678;50.058;8.306;2023-12-29T08:25:34;9.10;99.90
15156;DHT22;7678;50.058;8.306;2023-12-29T08:28:04;9.20;99.90
15156;DHT22;7678;50.058;8.306;2023-12-29T08:30:34;9.10;99.90
15156;DHT22;7678;50.058;8.306;2023-12-29T08:33:03;9.00;99.90
15156;DHT22;7678;50.058;8.306;2023-12-29T08:35:31;9.10;99.90
15156;DHT22;7678;50.058;8.306;2023-12-29T08:37:59;9.20;99.90
15156;DHT22;7678;50.058;8.306;2023-12-29T08:40:28;9.20;99.90
15156;DHT22;7678;50.058;8.306;2023-12-29T08:42:59;9.10;99.90
15156;DHT22;7678;50.058;8.306;2023-12-29T08:45:28;9.10;99.90
15156;DHT22;7678;50.058;8.306;2023-12-29T08:47:57;9.20;99.90
15156;DHT22;7678;50.058;8.306;2023-12-29T08:50:25;9.30;99.90
15156;DHT22;7678;50.058;8.306;2023-12-29T08:52:56;9.30;99.90
15156;DHT22;7678;50.058;8.306;2023-12-29T08:55:24;9.30;99.90
15156;DHT22;7678;50.058;8.306;2023-12-29T08:57:53;9.30;99.90
15156;DHT22;7678;50.058;8.306;2023-12-29T09:00:23;9.30;99.90
15156;DHT22;7678;50.058;8.306;2023-12-29T09:02:51;9.30;99.90
15156;DHT22;7678;50.058;8.306;2023-12-29T09:05:20;9.40;99.90
15156;DHT22;7678;50.058;8.306;2023-12-29T09:07:48;9.40;99.90
15156;DHT22;7678;50.058;8.306;2023-12-29T09:10:16;9.50;99.90
15156;DHT22;7678;50.058;8.306;2023-12-29T09:12:45;9.50;99.90
15156;DHT22;7678;50.058;8.306;2023-12-29T09:15:13;9.60;99.90
15156;DHT22;7678;50.058;8.306;2023-12-29T09:17:43;9.60;99.90
15156;DHT22;7678;50.058;8.306;2023-12-29T09:20:11;9.50;99.90
15156;DHT22;7678;50.058;8.306;2023-12-29T09:22:41;9.50;99.90
15156;DHT22;7678;50.058;8.306;2023-12-29T09:25:09;9.40;99.90
15156;DHT22;7678;50.058;8.306;2023-12-29T09:27:38;9.40;99.90
15156;DHT22;7678;50.058;8.306;2023-12-29T09:30:07;9.40;99.90
15156;DHT22;7678;50.058;8.306;2023-12-29T09:32:35;9.50;99.90
15156;DHT22;7678;50.058;8.306;2023-12-29T09:35:06;9.50;99.90
15156;DHT22;7678;50.058;8.306;2023-12-29T09:37:34;9.50;99.90
15156;DHT22;7678;50.058;8.306;2023-12-29T09:40:03;9.50;99.90
15156;DHT22;7678;50.058;8.306;2023-12-29T09:42:32;9.50;99.90
15156;DHT22;7678;50.058;8.306;2023-12-29T09:45:02;9.50;99.90
15156;DHT22;7678;50.058;8.306;2023-12-29T09:47:39;9.50;99.90
15156;DHT22;7678;50.058;8.306;2023-12-29T09:50:11;9.50;99.90
15156;DHT22;7678;50.058;8.306;2023-12-29T09:52:40;9.50;99.90
15156;DHT22;7678;50.058;8.306;2023-12-29T09:55:10;9.40;99.90
15156;DHT22;7678;50.058;8.306;2023-12-29T09:57:39;9.50;99.90
15156;DHT22;7678;50.058;8.306;2023-12-29T10:00:11;9.50;99.90
15156;DHT22;7678;50.058;8.306;2023-12-29T10:02:40;9.60;99.90
15156;DHT22;7678;50.058;8.306;2023-12-29T10:05:15;9.60;99.90
15156;DHT22;7678;50.058;8.306;2023-12-29T10:07:46;9.50;99.90
15156;DHT22;7678;50.058;8.306;2023-12-29T10:10:16;9.60;99.90
15156;DHT22;7678;50.058;8.306;2023-12-29T10:12:48;9.60;99.90
15156;DHT22;7678;50.058;8.306;2023-12-29T10:15:24;9.60;99.90
15156;DHT22;7678;50.058;8.306;2023-12-29T10:18:05;9.60;99.90
15156;DHT22;7678;50.058;8.306;2023-12-29T10:20:45;9.70;99.90
15156;DHT22;7678;50.058;8.306;2023-12-29T10:23:22;9.70;99.90
15156;DHT22;7678;50.058;8.306;2023-12-29T10:25:56;9.60;99.90
15156;DHT22;7678;50.058;8.306;2023-12-29T10:28:26;9.60;99.90
15156;DHT22;7678;50.058;8.306;2023-12-29T10:31:04;9.60;99.90
15156;DHT22;7678;50.058;8.306;2023-12-29T10:33:34;9.60;99.90
15156;DHT22;7678;50.058;8.306;2023-12-29T10:36:06;9.60;99.90
15156;DHT22;7678;50.058;8.306;2023-12-29T10:38:39;9.70;99.90
15156;DHT22;7678;50.058;8.306;2023-12-29T10:41:11;9.70;99.90
15156;DHT22;7678;50.058;8.306;2023-12-29T10:43:41;9.80;99.90
15156;DHT22;7678;50.058;8.306;2023-12-29T10:46:11;9.70;99.90
15156;DHT22;7678;50.058;8.306;2023-12-29T10:48:40;9.90;99.90
15156;DHT22;7678;50.058;8.306;2023-12-29T10:51:11;9.90;99.90
15156;DHT22;7678;50.058;8.306;2023-12-29T10:53:41;9.80;99.90
15156;DHT22;7678;50.058;8.306;2023-12-29T10:56:17;9.80;99.90
15156;DHT22;7678;50.058;8.306;2023-12-29T10:58:58;9.70;99.90
15156;DHT22;7678;50.058;8.306;2023-12-29T11:01:27;9.80;99.90
15156;DHT22;7678;50.058;8.306;2023-12-29T11:04:01;9.80;99.90
15156;DHT22;7678;50.058;8.306;2023-12-29T11:06:40;9.70;99.90
15156;DHT22;7678;50.058;8.306;2023-12-29T11:09:12;9.80;99.90
15156;DHT22;7678;50.058;8.306;2023-12-29T11:11:43;9.70;99.90
15156;DHT22;7678;50.058;8.306;2023-12-29T11:14:15;9.70;99.90
15156;DHT22;7678;50.058;8.306;2023-12-29T11:16:46;9.70;99.90
15156;DHT22;7678;50.058;8.306;2023-12-29T11:19:17;9.80;99.90
15156;DHT22;7678;50.058;8.306;2023-12-29T11:21:52;9.70;99.90
15156;DHT22;7678;50.058;8.306;2023-12-29T11:24:26;9.80;99.90
15156;DHT22;7678;50.058;8.306;2023-12-29T11:27:06;9.80;99.90
15156;DHT22;7678;50.058;8.306;2023-12-29T11:29:37;9.80;99.90
15156;DHT22;7678;50.058;8.306;2023-12-29T11:35:06;9.80;99.90
15156;DHT22;7678;50.058;8.306;2023-12-29T11:38:07;9.80;99.90
15156;DHT22;7678;50.058;8.306;2023-12-29T11:40:47;9.80;99.90
15156;DHT22;7678;50.058;8.306;2023-12-29T11:43:20;9.80;99.90
15156;DHT22;7678;50.058;8.306;2023-12-29T11:45:52;9.80;99.90
15156;DHT22;7678;50.058;8.306;2023-12-29T11:48:55;9.80;99.90
15156;DHT22;7678;50.058;8.306;2023-12-29T11:51:30;9.90;99.90
15156;DHT22;7678;50.058;8.306;2023-12-29T11:54:07;9.90;99.90
15156;DHT22;7678;50.058;8.306;2023-12-29T11:56:54;10.00;99.90
15156;DHT22;7678;50.058;8.306;2023-12-29T11:59:26;10.00;99.90
15156;DHT22;7678;50.058;8.306;2023-12-29T12:01:56;10.10;99.90
15156;DHT22;7678;50.058;8.306;2023-12-29T12:04:39;10.00;99.90
15156;DHT22;7678;50.058;8.306;2023-12-29T12:07:15;10.00;99.90
15156;DHT22;7678;50.058;8.306;2023-12-29T12:09:46;10.00;99.90
15156;DHT22;7678;50.058;8.306;2023-12-29T12:12:38;10.10;99.90
15156;DHT22;7678;50.058;8.306;2023-12-29T12:15:32;10.10;99.90
15156;DHT22;7678;50.058;8.306;2023-12-29T12:18:04;10.20;99.90
15156;DHT22;7678;50.058;8.306;2023-12-29T12:20:37;10.20;99.90
15156;DHT22;7678;50.058;8.306;2023-12-29T12:23:11;10.20;99.90
15156;DHT22;7678;50.058;8.306;2023-12-29T12:25:45;10.30;99.90
15156;DHT22;7678;50.058;8.306;2023-12-29T12:28:14;10.20;99.90
15156;DHT22;7678;50.058;8.306;2023-12-29T12:30:47;10.30;99.90
15156;DHT22;7678;50.058;8.306;2023-12-29T12:33:16;10.30;99.90
15156;DHT22;7678;50.058;8.306;2023-12-29T12:35:46;10.30;99.90
15156;DHT22;7678;50.058;8.306;2023-12-29T12:38:28;10.20;99.90
15156;DHT22;7678;50.058;8.306;2023-12-29T12:41:10;10.30;99.90
15156;DHT22;7678;50.058;8.306;2023-12-29T12:43:48;10.30;99.90
15156;DHT22;7678;50.058;8.306;2023-12-29T12:46:23;10.20;99.90
15156;DHT22;7678;50.058;8.306;2023-12-29T12:49:00;10.20;99.90
15156;DHT22;7678;50.058;8.306;2023-12-29T12:51:28;10.20;99.90
15156;DHT22;7678;50.058;8.306;2023-12-29T12:53:58;10.20;99.90
15156;DHT22;7678;50.058;8.306;2023-12-29T12:56:33;10.30;99.90
15156;DHT22;7678;50.058;8.306;2023-12-29T12:59:03;10.30;99.90
15156;DHT22;7678;50.058;8.306;2023-12-29T13:01:34;10.30;99.90
15156;DHT22;7678;50.058;8.306;2023-12-29T13:04:04;10.30;99.90
15156;DHT22;7678;50.058;8.306;2023-12-29T13:06:34;10.30;99.90
15156;DHT22;7678;50.058;8.306;2023-12-29T13:09:04;10.30;99.90
15156;DHT22;7678;50.058;8.306;2023-12-29T13:11:37;10.40;99.90
15156;DHT22;7678;50.058;8.306;2023-12-29T13:14:05;10.30;99.90
15156;DHT22;7678;50.058;8.306;2023-12-29T13:16:36;10.30;99.90
15156;DHT22;7678;50.058;8.306;2023-12-29T13:19:16;10.30;99.90
15156;DHT22;7678;50.058;8.306;2023-12-29T13:21:48;10.30;99.90
15156;DHT22;7678;50.058;8.306;2023-12-29T13:24:18;10.30;99.90
15156;DHT22;7678;50.058;8.306;2023-12-29T13:26:51;10.30;99.90
15156;DHT22;7678;50.058;8.306;2023-12-29T13:29:21;10.30;99.90
15156;DHT22;7678;50.058;8.306;2023-12-29T13:31:53;10.30;99.90
15156;DHT22;7678;50.058;8.306;2023-12-29T13:34:30;10.30;99.90
15156;DHT22;7678;50.058;8.306;2023-12-29T13:37:02;10.30;99.90
15156;DHT22;7678;50.058;8.306;2023-12-29T13:39:37;10.50;99.90
15156;DHT22;7678;50.058;8.306;2023-12-29T13:42:09;10.50;99.90
15156;DHT22;7678;50.058;8.306;2023-12-29T13:44:40;10.40;99.90
15156;DHT22;7678;50.058;8.306;2023-12-29T13:47:10;10.40;99.90
15156;DHT22;7678;50.058;8.306;2023-12-29T13:49:40;10.30;99.90
15156;DHT22;7678;50.058;8.306;2023-12-29T13:52:08;10.30;99.90
15156;DHT22;7678;50.058;8.306;2023-12-29T13:54:46;10.30;99.90
15156;DHT22;7678;50.058;8.306;2023-12-29T13:57:15;10.30;99.90
15156;DHT22;7678;50.058;8.306;2023-12-29T13:59:47;10.30;99.90
15156;DHT22;7678;50.058;8.306;2023-12-29T14:02:23;10.20;99.90
15156;DHT22;7678;50.058;8.306;2023-12-29T14:05:14;10.30;99.90
15156;DHT22;7678;50.058;8.306;2023-12-29T14:07:46;10.30;99.90
15156;DHT22;7678;50.058;8.306;2023-12-29T14:10:15;10.30;99.90
15156;DHT22;7678;50.058;8.306;2023-12-29T14:12:45;10.30;99.90
15156;DHT22;7678;50.058;8.306;2023-12-29T14:15:13;10.30;99.90
15156;DHT22;7678;50.058;8.306;2023-12-29T14:17:42;10.30;99.90
15156;DHT22;7678;50.058;8.306;2023-12-29T14:20:11;10.30;99.90
15156;DHT22;7678;50.058;8.306;2023-12-29T14:22:40;10.30;99.90
15156;DHT22;7678;50.058;8.306;2023-12-29T14:25:12;10.20;99.90
15156;DHT22;7678;50.058;8.306;2023-12-29T14:27:41;10.20;99.90
15156;DHT22;7678;50.058;8.306;2023-12-29T14:30:20;10.20;99.90
15156;DHT22;7678;50.058;8.306;2023-12-29T14:32:48;10.20;99.90
15156;DHT22;7678;50.058;8.306;2023-12-29T14:35:16;10.20;99.90
15156;DHT22;7678;50.058;8.306;2023-12-29T14:37:45;10.10;99.90
15156;DHT22;7678;50.058;8.306;2023-12-29T14:40:14;10.10;99.90
15156;DHT22;7678;50.058;8.306;2023-12-29T14:42:43;10.00;99.90
15156;DHT22;7678;50.058;8.306;2023-12-29T14:45:13;10.00;99.90
15156;DHT22;7678;50.058;8.306;2023-12-29T14:47:43;9.90;99.90
15156;DHT22;7678;50.058;8.306;2023-12-29T14:50:12;10.00;99.90
15156;DHT22;7678;50.058;8.306;2023-12-29T14:52:41;9.90;99.90
15156;DHT22;7678;50.058;8.306;2023-12-29T14:55:09;10.00;99.90
15156;DHT22;7678;50.058;8.306;2023-12-29T14:57:37;9.90;99.90
15156;DHT22;7678;50.058;8.306;2023-12-29T15:00:07;9.90;99.90
15156;DHT22;7678;50.058;8.306;2023-12-29T15:02:37;10.10;99.90
15156;DHT22;7678;50.058;8.306;2023-12-29T15:05:16;10.00;99.90
15156;DHT22;7678;50.058;8.306;2023-12-29T15:07:46;10.00;99.90
15156;DHT22;7678;50.058;8.306;2023-12-29T15:10:18;10.00;99.90
15156;DHT22;7678;50.058;8.306;2023-12-29T15:12:46;9.90;99.90
15156;DHT22;7678;50.058;8.306;2023-12-29T15:15:15;9.90;99.90
15156;DHT22;7678;50.058;8.306;2023-12-29T15:17:43;10.00;99.90
15156;DHT22;7678;50.058;8.306;2023-12-29T15:20:11;9.90;99.90
15156;DHT22;7678;50.058;8.306;2023-12-29T15:22:41;10.00;99.90
15156;DHT22;7678;50.058;8.306;2023-12-29T15:25:10;10.00;99.90
15156;DHT22;7678;50.058;8.306;2023-12-29T15:27:38;10.00;99.90
15156;DHT22;7678;50.058;8.306;2023-12-29T15:30:07;10.00;99.90
15156;DHT22;7678;50.058;8.306;2023-12-29T15:32:36;10.00;99.90
15156;DHT22;7678;50.058;8.306;2023-12-29T15:35:05;9.90;99.90
15156;DHT22;7678;50.058;8.306;2023-12-29T15:37:34;10.00;99.90
15156;DHT22;7678;50.058;8.306;2023-12-29T15:40:04;10.00;99.90
15156;DHT22;7678;50.058;8.306;2023-12-29T15:42:32;10.00;99.90
15156;DHT22;7678;50.058;8.306;2023-12-29T15:45:01;10.00;99.90
15156;DHT22;7678;50.058;8.306;2023-12-29T15:47:29;9.90;99.90
15156;DHT22;7678;50.058;8.306;2023-12-29T15:49:58;10.00;99.90
15156;DHT22;7678;50.058;8.306;2023-12-29T15:52:26;9.90;99.90
15156;DHT22;7678;50.058;8.306;2023-12-29T15:54:55;9.90;99.90
15156;DHT22;7678;50.058;8.306;2023-12-29T15:57:25;9.80;99.90
15156;DHT22;7678;50.058;8.306;2023-12-29T15:59:54;9.80;99.90
15156;DHT22;7678;50.058;8.306;2023-12-29T16:02:23;9.80;99.90
15156;DHT22;7678;50.058;8.306;2023-12-29T16:04:53;9.80;99.90
15156;DHT22;7678;50.058;8.306;2023-12-29T16:07:23;9.80;99.90
15156;DHT22;7678;50.058;8.306;2023-12-29T16:09:52;9.70;99.90
15156;DHT22;7678;50.058;8.306;2023-12-29T16:12:20;9.60;99.90
15156;DHT22;7678;50.058;8.306;2023-12-29T16:14:50;9.60;99.90
15156;DHT22;7678;50.058;8.306;2023-12-29T16:17:19;9.60;99.90
15156;DHT22;7678;50.058;8.306;2023-12-29T16:19:48;9.60;99.90